Main page
METAR-TAF:

METAR-TAF

Airports :

King Abdulaziz Air Base

Dhahran, Saudi Arabia

latitude: 26-16N, longitude: 050-09E, elevation: 26 m

Current weather observation

The report was made 26 minutes ago, at 16:00 UTC
Wind 10 kt from the East/Northeast
Temperature 36°C
Humidity 15%
Pressure 1002 hPa
Visibility: 8000 m

METAR: OEDR 281600Z 06010KT 8000 NSC 36/05 Q1002 NOSIG

Time: 19:26 (16:26 UTC)

Forecast

The report was made 8 hours and 26 minutes ago, at 08:00 UTC
Forecast valid from 28 at 12 UTC to 29 at 18 UTC
Wind 10 kt from the North/Northeast with gusts up to 20 kt
Visibility: 8000 m
Probability 30% :
Temporary
from 28 at 12 UTC to 28 at 18 UTC
Visibility: 4000 m
Blowing dust
Becoming
from 28 at 18 UTC to 28 at 20 UTC
Wind 5 kt from the West

TAF: OEDR 280800Z 2812/2918 03010G20KT 8000 NSC PROB30 TEMPO 2812/2818 4000 BLDU BECMG 2818/2820 28005KT

Weather observations and forecasts of more than 4000 airports (METAR and TAF reports).

The available stations are represented by yellow and red dots on the map.

Hover mouse over dot to see the name of the station.

Then click to see weather observations and forecasts.

To change the map : click on the green buttons with a black cross to zoom in, on the green button with a dash to zoom out, or on the green arrows for adjacent maps.


METAR-TAF: